Terminal Aerodrome Forecast
Issued by NWS

Home | Current Version | Previous Version | Text Only | Print | Product List | Glossary On
Versions: 1 2 3 4 5 6 7 8 9 10 11 12 13 14
000
FTUS44 KLZK 211720
TAFLLQ
TAF
KLLQ 211720Z 2118/2218 18010G17KT P6SM VCSH SCT025 OVC080
     FM220000 14009G16KT P6SM VCTS BKN025CB BKN250
     FM220800 19010G20KT P6SM VCTS BKN050CB OVC100
     FM221200 21015G25KT 4SM TSRA BR BKN015 OVC050CB
      TEMPO 2212/2215 VRB20G30KT 1SM +TSRA OVC005CB
     FM221500 25010KT 6SM -RA BR OVC015=

USA.gov is the U.S. government's official web portal to all federal, state and local government web resources and services.